createdAt,value
2018-05-11T00:01:50.871Z,13.63
2018-05-11T00:05:53.356Z,11.73
2018-05-11T00:09:55.808Z,11.33
2018-05-11T00:13:58.286Z,10.80
2018-05-11T00:18:00.771Z,11.70
2018-05-11T00:22:03.236Z,12.73
2018-05-11T00:26:05.711Z,12.30
2018-05-11T00:30:08.190Z,12.27
2018-05-11T00:34:10.715Z,11.37
2018-05-11T00:38:13.182Z,14.87
2018-05-11T00:42:15.667Z,10.83
2018-05-11T00:46:18.168Z,11.47
2018-05-11T00:50:26.061Z,11.10
2018-05-11T00:54:28.526Z,13.60
2018-05-11T00:58:31.017Z,11.23
2018-05-11T01:02:33.481Z,11.50
2018-05-11T01:06:35.967Z,10.27
2018-05-11T01:10:38.448Z,11.53
2018-05-11T01:14:40.939Z,10.10
2018-05-11T01:18:43.400Z,11.50
2018-05-11T01:22:45.884Z,10.20
2018-05-11T01:26:48.368Z,11.07
2018-05-11T01:30:50.854Z,11.67
2018-05-11T01:34:53.339Z,11.40
2018-05-11T01:38:55.830Z,11.07
2018-05-11T01:42:58.286Z,10.07
2018-05-11T01:47:00.764Z,9.97
2018-05-11T01:51:03.250Z,9.47
2018-05-11T01:55:05.729Z,8.13
2018-05-11T01:59:08.203Z,7.37
2018-05-11T02:03:10.683Z,6.93
2018-05-11T02:07:13.146Z,7.23
2018-05-11T02:11:15.631Z,7.97
2018-05-11T02:15:18.091Z,7.83
2018-05-11T02:19:20.577Z,6.80
2018-05-11T02:23:23.054Z,7.63
2018-05-11T02:27:25.503Z,7.30
2018-05-11T02:31:27.983Z,7.47
2018-05-11T02:35:30.463Z,7.50
2018-05-11T02:39:32.922Z,8.63
2018-05-11T02:43:35.407Z,12.10
2018-05-11T02:47:37.891Z,8.93
2018-05-11T02:51:40.356Z,8.93
2018-05-11T02:55:42.840Z,10.33
2018-05-11T02:59:45.324Z,9.50
2018-05-11T03:03:47.791Z,9.17
2018-05-11T03:07:50.272Z,8.87
2018-05-11T03:11:52.748Z,8.43
2018-05-11T03:15:55.229Z,8.67
2018-05-11T03:19:57.675Z,9.47
2018-05-11T03:24:00.155Z,9.67
2018-05-11T03:28:02.641Z,9.87
2018-05-11T03:32:05.125Z,10.53
2018-05-11T03:36:07.614Z,9.93
2018-05-11T03:40:10.099Z,9.47
2018-05-11T03:44:12.560Z,9.40
2018-05-11T03:48:15.069Z,9.20
2018-05-11T03:52:17.537Z,9.93
2018-05-11T03:56:20.024Z,9.57
2018-05-11T04:00:22.507Z,9.37
2018-05-11T04:04:36.824Z,8.50
2018-05-11T04:08:43.651Z,9.47
2018-05-11T04:12:46.124Z,8.97
2018-05-11T04:16:48.605Z,8.83
2018-05-11T04:20:51.107Z,9.37
2018-05-11T04:24:53.591Z,9.47
2018-05-11T04:28:56.153Z,8.70
2018-05-11T04:32:58.586Z,8.97
2018-05-11T04:37:01.039Z,8.70
2018-05-11T04:41:03.536Z,9.87
2018-05-11T04:45:06.000Z,10.43
2018-05-11T04:49:08.500Z,10.00
2018-05-11T04:53:10.990Z,11.30
2018-05-11T04:57:13.502Z,10.03
2018-05-11T05:01:15.996Z,9.90
2018-05-11T05:05:18.475Z,10.30
2018-05-11T05:09:20.971Z,10.30
2018-05-11T05:13:23.446Z,9.57
2018-05-11T05:17:25.952Z,9.97
2018-05-11T05:21:28.417Z,10.40
2018-05-11T05:25:30.914Z,10.60
2018-05-11T05:29:33.415Z,9.90
2018-05-11T05:33:35.921Z,9.90
2018-05-11T05:37:38.422Z,10.10
2018-05-11T05:41:40.895Z,9.60
2018-05-11T05:45:43.425Z,9.63
2018-05-11T05:49:45.917Z,8.50
2018-05-11T05:53:48.382Z,8.73
2018-05-11T05:57:50.888Z,8.23
2018-05-11T06:01:53.360Z,7.37
2018-05-11T06:05:55.854Z,7.73
2018-05-11T06:09:58.337Z,7.40
2018-05-11T06:14:00.822Z,7.13
2018-05-11T06:18:03.309Z,8.07
2018-05-11T06:22:05.913Z,9.20
2018-05-11T06:26:08.305Z,8.27
2018-05-11T06:30:11.694Z,8.80
2018-05-11T06:34:14.181Z,8.40
2018-05-11T06:38:16.660Z,8.87
2018-05-11T06:42:19.155Z,9.10
2018-05-11T06:46:21.620Z,9.87
2018-05-11T06:50:24.124Z,10.93
2018-05-11T06:54:26.619Z,10.60
2018-05-11T06:58:29.087Z,10.17
2018-05-11T07:02:31.580Z,9.47
2018-05-11T07:06:34.055Z,9.20
2018-05-11T07:10:36.538Z,8.60
2018-05-11T07:14:39.033Z,10.03
2018-05-11T07:18:41.518Z,9.53
2018-05-11T07:22:44.023Z,9.93
2018-05-11T07:26:46.484Z,9.00
2018-05-11T07:30:49.990Z,9.43
2018-05-11T07:34:52.560Z,9.90
2018-05-11T07:38:54.989Z,9.27
2018-05-11T07:42:57.467Z,10.10
2018-05-11T07:46:59.961Z,9.53
2018-05-11T07:51:02.453Z,10.60
2018-05-11T07:55:04.947Z,13.37
2018-05-11T07:59:07.404Z,10.23
2018-05-11T08:03:09.905Z,11.37
2018-05-11T08:07:12.399Z,10.83
2018-05-11T08:11:14.889Z,10.60
2018-05-11T08:15:17.392Z,12.30
2018-05-11T08:19:19.875Z,11.60
2018-05-11T08:23:22.363Z,13.67
2018-05-11T08:27:24.885Z,11.30
2018-05-11T08:31:27.389Z,12.57
2018-05-11T08:35:29.890Z,13.40
2018-05-11T08:39:32.396Z,12.40
2018-05-11T08:43:34.898Z,12.80
2018-05-11T08:47:37.376Z,12.43
2018-05-11T08:51:39.876Z,13.57
2018-05-11T08:55:42.369Z,13.57
2018-05-11T08:59:44.868Z,12.73
2018-05-11T09:03:47.360Z,13.00
2018-05-11T09:07:49.919Z,12.53
2018-05-11T09:11:52.399Z,13.00
2018-05-11T09:15:54.906Z,12.37
2018-05-11T09:19:57.366Z,13.40
2018-05-11T09:23:59.852Z,13.10
2018-05-11T09:28:02.355Z,13.73
2018-05-11T09:32:04.881Z,13.50
2018-05-11T09:36:07.366Z,13.27
2018-05-11T09:40:10.809Z,12.57
2018-05-11T09:44:13.312Z,12.87
2018-05-11T09:48:15.789Z,12.20
2018-05-11T09:52:18.282Z,12.87
2018-05-11T09:56:20.792Z,14.03
2018-05-11T10:00:26.253Z,14.20
2018-05-11T10:04:28.747Z,13.73
2018-05-11T10:08:31.227Z,14.17
2018-05-11T10:12:33.750Z,13.67
2018-05-11T10:16:36.251Z,15.37
2018-05-11T10:20:38.739Z,14.93
2018-05-11T10:24:41.242Z,13.90
2018-05-11T10:28:43.754Z,15.80
2018-05-11T10:32:46.236Z,16.43
2018-05-11T10:36:48.725Z,15.40
2018-05-11T10:40:51.314Z,15.47
2018-05-11T10:44:53.775Z,15.57
2018-05-11T10:48:56.274Z,14.47
2018-05-11T10:52:58.766Z,16.03
2018-05-11T10:57:01.254Z,15.43
2018-05-11T11:01:03.757Z,15.70
2018-05-11T11:05:06.221Z,16.13
2018-05-11T11:09:08.715Z,14.53
2018-05-11T11:13:11.207Z,16.57
2018-05-11T11:17:13.680Z,17.93
2018-05-11T11:21:16.175Z,20.40
2018-05-11T11:25:18.679Z,17.93
2018-05-11T11:29:21.167Z,17.70
2018-05-11T11:33:23.660Z,18.73
2018-05-11T11:37:26.136Z,18.43
2018-05-11T11:41:28.627Z,18.30
2018-05-11T11:45:31.110Z,18.70
2018-05-11T11:49:33.608Z,16.03
2018-05-11T11:53:36.108Z,16.30
2018-05-11T11:57:38.599Z,15.45
2018-05-11T12:01:41.233Z,14.45
2018-05-11T12:05:43.666Z,13.70
2018-05-11T12:09:46.166Z,13.50
2018-05-11T12:13:48.659Z,13.23
2018-05-11T12:17:51.140Z,12.75
2018-05-11T12:21:53.651Z,14.63
2018-05-11T12:25:56.160Z,13.32
2018-05-11T12:29:58.651Z,11.05
2018-05-11T12:34:01.152Z,12.35
2018-05-11T12:38:03.618Z,12.27
2018-05-11T12:42:06.116Z,11.85
2018-05-11T12:46:08.618Z,12.25
2018-05-11T12:50:11.103Z,11.93
2018-05-11T12:54:13.629Z,12.35
2018-05-11T12:58:16.133Z,12.00
2018-05-11T13:02:18.640Z,11.12
2018-05-11T13:06:21.131Z,10.05
2018-05-11T13:10:23.619Z,10.82
2018-05-11T13:14:26.135Z,10.98
2018-05-11T13:18:28.662Z,10.27
2018-05-11T13:22:31.159Z,9.60
2018-05-11T13:26:33.618Z,9.90
2018-05-11T13:30:36.160Z,9.30
2018-05-11T13:34:38.616Z,8.75
2018-05-11T13:38:41.202Z,9.80
2018-05-11T13:42:43.661Z,9.82
2018-05-11T13:46:46.141Z,8.45
2018-05-11T13:50:48.631Z,9.02
2018-05-11T13:54:51.123Z,7.70
2018-05-11T13:58:53.623Z,8.55
2018-05-11T14:02:56.089Z,8.48
2018-05-11T14:06:58.576Z,9.35
2018-05-11T14:11:01.118Z,9.27
2018-05-11T14:15:03.561Z,8.80
2018-05-11T14:19:06.014Z,8.80
2018-05-11T14:23:08.561Z,8.90
2018-05-11T14:27:11.068Z,12.32
2018-05-11T14:31:13.550Z,7.50
2018-05-11T14:35:16.039Z,7.78
2018-05-11T14:39:18.550Z,7.53
2018-05-11T14:43:22.106Z,8.32
2018-05-11T14:47:24.591Z,8.82
2018-05-11T14:51:27.054Z,9.63
2018-05-11T14:55:29.533Z,8.02
2018-05-11T14:59:32.016Z,8.02
2018-05-11T15:03:34.499Z,8.65
2018-05-11T15:07:36.994Z,8.45
2018-05-11T15:11:39.494Z,8.07
2018-05-11T15:15:41.957Z,9.02
2018-05-11T15:19:44.445Z,6.82
2018-05-11T15:23:46.933Z,7.32
2018-05-11T15:27:49.416Z,7.60
2018-05-11T15:31:51.896Z,8.02
2018-05-11T15:35:54.382Z,8.98
2018-05-11T15:39:56.867Z,8.80
2018-05-11T15:43:59.360Z,8.43
2018-05-11T15:48:01.848Z,8.52
2018-05-11T15:52:04.366Z,9.75
2018-05-11T15:56:06.861Z,7.30
2018-05-11T16:00:09.349Z,8.23
2018-05-11T16:04:11.829Z,7.93
2018-05-11T16:08:14.300Z,8.68
2018-05-11T16:12:16.793Z,8.50
2018-05-11T16:16:19.279Z,9.30
2018-05-11T16:20:21.744Z,9.00
2018-05-11T16:24:24.236Z,8.30
2018-05-11T16:28:26.692Z,9.10
2018-05-11T16:32:29.190Z,10.48
2018-05-11T16:36:31.653Z,8.55
2018-05-11T16:40:34.186Z,8.23
2018-05-11T16:44:36.646Z,8.40
2018-05-11T16:48:39.123Z,8.67
2018-05-11T16:52:41.617Z,10.05
2018-05-11T16:56:44.099Z,8.50
2018-05-11T17:00:46.581Z,8.90
2018-05-11T17:04:49.087Z,8.90
2018-05-11T17:08:51.552Z,9.00
2018-05-11T17:12:54.039Z,8.13
2018-05-11T17:16:56.539Z,8.87
2018-05-11T17:20:58.999Z,9.43
2018-05-11T17:25:01.484Z,8.83
2018-05-11T17:29:03.979Z,10.57
2018-05-11T17:33:06.459Z,9.10
2018-05-11T17:37:08.937Z,10.37
2018-05-11T17:41:11.425Z,9.23
2018-05-11T17:45:13.897Z,11.33
2018-05-11T17:49:16.404Z,11.90
2018-05-11T17:53:18.945Z,11.07
2018-05-11T17:57:21.436Z,11.37
2018-05-11T18:01:23.938Z,9.60
2018-05-11T18:05:26.423Z,9.83
2018-05-11T18:09:28.920Z,10.20
2018-05-11T18:13:31.388Z,10.63
2018-05-11T18:17:33.872Z,10.60
2018-05-11T18:21:36.335Z,10.13
2018-05-11T18:25:38.844Z,10.53
2018-05-11T18:29:41.330Z,11.17
2018-05-11T18:33:43.832Z,11.33
2018-05-11T18:37:46.331Z,13.37
2018-05-11T18:41:48.821Z,11.30
2018-05-11T18:45:51.275Z,12.03
2018-05-11T18:49:53.778Z,12.50
2018-05-11T18:53:56.760Z,12.23
2018-05-11T18:57:58.761Z,11.87
2018-05-11T19:02:01.263Z,14.27
2018-05-11T19:06:03.755Z,12.40
2018-05-11T19:10:06.260Z,13.30
2018-05-11T19:14:08.777Z,14.17
2018-05-11T19:18:11.277Z,15.10
2018-05-11T19:22:13.744Z,15.47
2018-05-11T19:26:16.243Z,17.23
2018-05-11T19:30:18.713Z,16.67
2018-05-11T19:34:21.212Z,16.23
2018-05-11T19:38:23.727Z,17.07
2018-05-11T19:42:26.203Z,14.77
2018-05-11T19:46:28.690Z,14.87
2018-05-11T19:50:31.199Z,14.97
2018-05-11T19:54:33.691Z,15.43
2018-05-11T19:58:36.188Z,16.07
2018-05-11T20:02:38.683Z,15.33
2018-05-11T20:06:42.039Z,15.53
2018-05-11T20:10:44.535Z,15.50
2018-05-11T20:14:47.018Z,15.67
2018-05-11T20:18:49.518Z,18.23
2018-05-11T20:22:52.015Z,18.17
2018-05-11T20:26:54.513Z,19.57
2018-05-11T20:30:57.010Z,19.53
2018-05-11T20:34:59.470Z,19.07
2018-05-11T20:39:01.962Z,18.73
2018-05-11T20:43:04.457Z,18.73
2018-05-11T20:47:06.957Z,18.07
2018-05-11T20:51:09.428Z,19.70
2018-05-11T20:55:11.931Z,19.67
2018-05-11T20:59:14.397Z,18.07
2018-05-11T21:03:16.897Z,19.07
2018-05-11T21:07:19.386Z,19.20
2018-05-11T21:11:21.889Z,18.17
2018-05-11T21:15:24.350Z,19.63
2018-05-11T21:19:26.837Z,18.67
2018-05-11T21:23:29.331Z,20.00
2018-05-11T21:27:31.838Z,19.07
2018-05-11T21:31:34.324Z,19.93
2018-05-11T21:35:36.807Z,21.63
2018-05-11T21:39:39.293Z,20.90
2018-05-11T21:43:41.803Z,21.07
2018-05-11T21:47:44.287Z,20.87
2018-05-11T21:51:46.752Z,21.13
2018-05-11T21:55:49.240Z,21.80
2018-05-11T21:59:51.729Z,20.97
2018-05-11T22:03:54.198Z,21.03
2018-05-11T22:07:56.698Z,19.23
2018-05-11T22:11:59.223Z,17.63
2018-05-11T22:16:01.803Z,20.13
2018-05-11T22:20:04.277Z,18.27
2018-05-11T22:24:06.772Z,20.13
2018-05-11T22:28:09.263Z,20.20
2018-05-11T22:32:11.752Z,19.87
2018-05-11T22:36:14.243Z,20.77
2018-05-11T22:40:16.740Z,20.67
2018-05-11T22:44:19.228Z,20.97
2018-05-11T22:48:21.711Z,21.87
2018-05-11T22:52:24.204Z,22.90
2018-05-11T22:56:26.681Z,24.40
2018-05-11T23:00:43.995Z,22.33
2018-05-11T23:04:46.479Z,21.63
2018-05-11T23:08:48.971Z,21.43
2018-05-11T23:12:51.459Z,20.60
2018-05-11T23:16:53.948Z,20.20
2018-05-11T23:20:56.433Z,20.80
2018-05-11T23:24:58.926Z,19.73
2018-05-11T23:29:01.423Z,19.63
2018-05-11T23:33:03.887Z,21.40
2018-05-11T23:37:06.385Z,19.70
2018-05-11T23:41:08.883Z,19.20
2018-05-11T23:45:11.398Z,19.57
2018-05-11T23:49:13.927Z,19.23
2018-05-11T23:53:16.426Z,19.00
2018-05-11T23:57:20.033Z,19.50
